Vance Air Force Base
KEND : now visible

Airfield :











YOU CAN JOIN US ON...

 
LOGIN :

Register | Disclaimer

   EN    FR    IT 

 









Legend :    VFR   Marginal VFR   IFR   Intensive IFR   Very Intensive IFR
Visi :
Ceiling :
>= 8 km
>= 3000ft
5 to 8 km
1000 to 3000 ft
1500m to 5 km
500 to 1000 ft
800 to 1500m
200 to 500 ft
< 800m
< 200 ft
Symbols :   Thunderstorms  Fog  Heavy snow  Heavy precipitations  Wind > 20 kt






- Airport Elevation : 1307 ft


KEND - Vance Air Force Base

CURRENT METAR :
  • 171856Z AUTO 00000KT 10SM OVC031 25/16 A2989 RMK AO2 SLP114 T02490163 $

EXPIRED METARs :
  • 171756Z AUTO 05006KT 10SM OVC024 24/16 A2990 RMK AO2 SLP118 60000 T02370160 10237 20158 50000 $
  • 171656Z 05005KT 10SM OVC021 22/16 A2991 RMK AO2A RAB35E45 SLP122 P0000 T02210161 $
  • 171631Z AUTO 05004KT 10SM OVC020 21/16 A2991 RMK AO2 CIG 019 RWY17C SLP122 $

TAF TAF KEND
Valid from the 17 at 18:00 until the 19 at 00:00 UTC


171800Z 1718/1824 VRB06KT 9999 BKN022 QNH2985INS
BECMG 1805/1806 10009KT 9000 -SHRA BKN030 QNH2986INS
TEMPO 1807/1811 8000 -TSRA OVC010CB
BECMG 1814/1815 11010G15KT 8000 BR SHRA BKN055 QNH2987INS
BECMG 1817/1818 12015KT 9000 -SHRA BKN027 QNH2980INS
TEMPO 1817/1823 VRB20G30KT 8000 -TSRA OVC015CB
BECMG 1823/1824 11012G18KT 9000 -SHRA SCT026 QNH2977INS TX26/1720Z TN16/1811Z
KZKC FIR / North America



MET'MAP, your aeronautical weather chart ! - Copyright ORBIFLY December 2007 - Disclaimer

ORBIFLY MET'MAP TEAM :

Programming & Development : Alexandra Zaïnal
Concept & original design : Baudouin d'Aumeries
Assistance for programming : Marc-Olivier Méhu
Technical & hardware support : Manuel Goepfert

Contact : metmap@orbifly.com




SOURCES & CREDITS :

   NOAA       Earth
Advisory